sensor_id;sensor_type;location;lat;lon;timestamp;temperature;humidity
68217;DHT22;55037;52.354;4.992;2023-01-26T00:01:38;1.90;94.40
68217;DHT22;55037;52.354;4.992;2023-01-26T00:04:05;1.90;94.60
68217;DHT22;55037;52.354;4.992;2023-01-26T00:06:32;2.00;94.50
68217;DHT22;55037;52.354;4.992;2023-01-26T00:08:59;2.00;94.50
68217;DHT22;55037;52.354;4.992;2023-01-26T00:11:27;2.00;94.10
68217;DHT22;55037;52.354;4.992;2023-01-26T00:13:58;2.00;94.50
68217;DHT22;55037;52.354;4.992;2023-01-26T00:16:26;2.00;94.50
68217;DHT22;55037;52.354;4.992;2023-01-26T00:18:54;2.10;94.50
68217;DHT22;55037;52.354;4.992;2023-01-26T00:21:22;2.00;94.40
68217;DHT22;55037;52.354;4.992;2023-01-26T00:23:51;2.00;94.50
68217;DHT22;55037;52.354;4.992;2023-01-26T00:26:20;2.00;94.50
68217;DHT22;55037;52.354;4.992;2023-01-26T00:28:48;2.10;94.50
68217;DHT22;55037;52.354;4.992;2023-01-26T00:31:22;2.00;94.10
68217;DHT22;55037;52.354;4.992;2023-01-26T00:33:53;2.00;94.60
68217;DHT22;55037;52.354;4.992;2023-01-26T00:36:21;2.10;94.60
68217;DHT22;55037;52.354;4.992;2023-01-26T00:38:48;2.10;94.60
68217;DHT22;55037;52.354;4.992;2023-01-26T00:41:15;2.10;94.50
68217;DHT22;55037;52.354;4.992;2023-01-26T00:44:01;2.10;95.00
68217;DHT22;55037;52.354;4.992;2023-01-26T00:46:29;2.20;94.50
68217;DHT22;55037;52.354;4.992;2023-01-26T00:48:56;2.20;94.50
68217;DHT22;55037;52.354;4.992;2023-01-26T00:51:23;2.10;94.10
68217;DHT22;55037;52.354;4.992;2023-01-26T00:53:50;2.10;94.50
68217;DHT22;55037;52.354;4.992;2023-01-26T00:56:18;2.10;94.60
68217;DHT22;55037;52.354;4.992;2023-01-26T00:58:45;2.10;94.50
68217;DHT22;55037;52.354;4.992;2023-01-26T01:01:13;2.00;94.50
68217;DHT22;55037;52.354;4.992;2023-01-26T01:03:41;2.00;94.50
68217;DHT22;55037;52.354;4.992;2023-01-26T01:06:09;2.00;94.60
68217;DHT22;55037;52.354;4.992;2023-01-26T01:08:36;2.00;94.60
68217;DHT22;55037;52.354;4.992;2023-01-26T01:11:09;2.00;94.20
68217;DHT22;55037;52.354;4.992;2023-01-26T01:13:37;2.10;94.60
68217;DHT22;55037;52.354;4.992;2023-01-26T01:16:12;2.10;94.60
68217;DHT22;55037;52.354;4.992;2023-01-26T01:18:41;2.10;94.60
68217;DHT22;55037;52.354;4.992;2023-01-26T01:21:14;2.10;94.60
68217;DHT22;55037;52.354;4.992;2023-01-26T01:23:41;2.10;94.70
68217;DHT22;55037;52.354;4.992;2023-01-26T01:26:09;2.10;94.80
68217;DHT22;55037;52.354;4.992;2023-01-26T01:28:37;2.20;94.80
68217;DHT22;55037;52.354;4.992;2023-01-26T01:31:06;2.20;94.70
68217;DHT22;55037;52.354;4.992;2023-01-26T01:33:35;2.20;94.80
68217;DHT22;55037;52.354;4.992;2023-01-26T01:36:04;2.20;94.70
68217;DHT22;55037;52.354;4.992;2023-01-26T01:38:33;2.20;94.70
68217;DHT22;55037;52.354;4.992;2023-01-26T01:41:02;2.20;94.70
68217;DHT22;55037;52.354;4.992;2023-01-26T01:43:30;2.20;94.70
68217;DHT22;55037;52.354;4.992;2023-01-26T01:46:00;2.30;94.70
68217;DHT22;55037;52.354;4.992;2023-01-26T01:48:48;2.30;95.10
68217;DHT22;55037;52.354;4.992;2023-01-26T01:51:37;2.30;94.70
68217;DHT22;55037;52.354;4.992;2023-01-26T01:54:09;2.30;94.70
68217;DHT22;55037;52.354;4.992;2023-01-26T01:56:41;2.30;94.70
68217;DHT22;55037;52.354;4.992;2023-01-26T01:59:10;2.30;94.70
68217;DHT22;55037;52.354;4.992;2023-01-26T02:01:39;2.30;94.70
68217;DHT22;55037;52.354;4.992;2023-01-26T02:04:07;2.30;94.70
68217;DHT22;55037;52.354;4.992;2023-01-26T02:06:49;2.30;94.60
68217;DHT22;55037;52.354;4.992;2023-01-26T02:09:21;2.30;94.70
68217;DHT22;55037;52.354;4.992;2023-01-26T02:12:12;2.30;94.80
68217;DHT22;55037;52.354;4.992;2023-01-26T02:14:40;2.40;94.90
68217;DHT22;55037;52.354;4.992;2023-01-26T02:17:08;2.40;94.70
68217;DHT22;55037;52.354;4.992;2023-01-26T02:22:34;2.40;94.80
68217;DHT22;55037;52.354;4.992;2023-01-26T02:25:15;2.40;94.70
68217;DHT22;55037;52.354;4.992;2023-01-26T02:27:45;2.40;94.80
68217;DHT22;55037;52.354;4.992;2023-01-26T02:30:13;2.40;94.70
68217;DHT22;55037;52.354;4.992;2023-01-26T02:32:42;2.40;94.70
68217;DHT22;55037;52.354;4.992;2023-01-26T02:35:09;2.30;94.80
68217;DHT22;55037;52.354;4.992;2023-01-26T02:37:37;2.40;94.80
68217;DHT22;55037;52.354;4.992;2023-01-26T02:40:49;2.40;94.70
68217;DHT22;55037;52.354;4.992;2023-01-26T02:43:19;2.30;94.70
68217;DHT22;55037;52.354;4.992;2023-01-26T02:45:46;2.40;94.90
68217;DHT22;55037;52.354;4.992;2023-01-26T02:48:13;2.40;94.90
68217;DHT22;55037;52.354;4.992;2023-01-26T02:51:03;2.40;95.00
68217;DHT22;55037;52.354;4.992;2023-01-26T02:53:31;2.40;94.80
68217;DHT22;55037;52.354;4.992;2023-01-26T02:55:58;2.50;94.80
68217;DHT22;55037;52.354;4.992;2023-01-26T02:58:26;2.50;94.90
68217;DHT22;55037;52.354;4.992;2023-01-26T03:00:53;2.50;94.40
68217;DHT22;55037;52.354;4.992;2023-01-26T03:03:23;2.50;94.70
68217;DHT22;55037;52.354;4.992;2023-01-26T03:05:51;2.50;94.80
68217;DHT22;55037;52.354;4.992;2023-01-26T03:08:18;2.50;94.80
68217;DHT22;55037;52.354;4.992;2023-01-26T03:10:45;2.50;94.90
68217;DHT22;55037;52.354;4.992;2023-01-26T03:13:14;2.60;94.90
68217;DHT22;55037;52.354;4.992;2023-01-26T03:15:41;2.60;94.90
68217;DHT22;55037;52.354;4.992;2023-01-26T03:18:15;2.60;94.90
68217;DHT22;55037;52.354;4.992;2023-01-26T03:21:03;2.70;94.50
68217;DHT22;55037;52.354;4.992;2023-01-26T03:23:50;2.70;94.80
68217;DHT22;55037;52.354;4.992;2023-01-26T03:26:38;2.70;94.80
68217;DHT22;55037;52.354;4.992;2023-01-26T03:29:24;2.70;95.20
68217;DHT22;55037;52.354;4.992;2023-01-26T03:31:54;2.70;94.90
68217;DHT22;55037;52.354;4.992;2023-01-26T03:34:22;2.70;94.70
68217;DHT22;55037;52.354;4.992;2023-01-26T03:36:49;2.70;94.80
68217;DHT22;55037;52.354;4.992;2023-01-26T03:39:18;2.80;94.50
68217;DHT22;55037;52.354;4.992;2023-01-26T03:42:04;2.80;94.90
68217;DHT22;55037;52.354;4.992;2023-01-26T03:44:50;2.80;94.80
68217;DHT22;55037;52.354;4.992;2023-01-26T03:47:38;2.80;94.70
68217;DHT22;55037;52.354;4.992;2023-01-26T03:50:24;2.80;94.70
68217;DHT22;55037;52.354;4.992;2023-01-26T03:53:15;2.80;94.80
68217;DHT22;55037;52.354;4.992;2023-01-26T03:56:03;2.80;94.80
68217;DHT22;55037;52.354;4.992;2023-01-26T03:59:06;2.90;94.90
68217;DHT22;55037;52.354;4.992;2023-01-26T04:01:36;2.90;94.80
68217;DHT22;55037;52.354;4.992;2023-01-26T04:04:05;3.00;94.80
68217;DHT22;55037;52.354;4.992;2023-01-26T04:06:51;3.00;94.80
68217;DHT22;55037;52.354;4.992;2023-01-26T04:09:44;3.00;94.80
68217;DHT22;55037;52.354;4.992;2023-01-26T04:12:12;3.00;94.80
68217;DHT22;55037;52.354;4.992;2023-01-26T04:14:52;3.10;94.90
68217;DHT22;55037;52.354;4.992;2023-01-26T04:17:38;3.10;94.90
68217;DHT22;55037;52.354;4.992;2023-01-26T04:20:25;3.20;94.60
68217;DHT22;55037;52.354;4.992;2023-01-26T04:23:18;3.20;95.40
68217;DHT22;55037;52.354;4.992;2023-01-26T04:25:47;3.40;94.90
68217;DHT22;55037;52.354;4.992;2023-01-26T04:28:15;3.40;94.70
68217;DHT22;55037;52.354;4.992;2023-01-26T04:30:43;3.50;94.80
68217;DHT22;55037;52.354;4.992;2023-01-26T04:33:10;3.50;94.80
68217;DHT22;55037;52.354;4.992;2023-01-26T04:35:38;3.60;94.90
68217;DHT22;55037;52.354;4.992;2023-01-26T04:38:06;3.70;94.80
68217;DHT22;55037;52.354;4.992;2023-01-26T04:40:33;3.80;94.80
68217;DHT22;55037;52.354;4.992;2023-01-26T04:43:01;3.80;94.70
68217;DHT22;55037;52.354;4.992;2023-01-26T04:45:29;3.80;94.40
68217;DHT22;55037;52.354;4.992;2023-01-26T04:47:56;4.20;94.40
68217;DHT22;55037;52.354;4.992;2023-01-26T04:50:25;5.80;95.00
68217;DHT22;55037;52.354;4.992;2023-01-26T04:52:52;3.90;94.80
68217;DHT22;55037;52.354;4.992;2023-01-26T04:55:19;4.00;94.70
68217;DHT22;55037;52.354;4.992;2023-01-26T04:57:46;4.10;94.50
68217;DHT22;55037;52.354;4.992;2023-01-26T05:00:14;4.10;94.20
68217;DHT22;55037;52.354;4.992;2023-01-26T05:02:41;4.10;94.60
68217;DHT22;55037;52.354;4.992;2023-01-26T05:05:09;4.20;94.30
68217;DHT22;55037;52.354;4.992;2023-01-26T05:07:37;4.20;94.40
68217;DHT22;55037;52.354;4.992;2023-01-26T05:10:04;4.20;93.80
68217;DHT22;55037;52.354;4.992;2023-01-26T05:12:41;4.20;94.20
68217;DHT22;55037;52.354;4.992;2023-01-26T05:15:29;4.20;94.30
68217;DHT22;55037;52.354;4.992;2023-01-26T05:18:19;4.30;94.20
68217;DHT22;55037;52.354;4.992;2023-01-26T05:20:54;4.30;93.80
68217;DHT22;55037;52.354;4.992;2023-01-26T05:23:25;4.30;94.00
68217;DHT22;55037;52.354;4.992;2023-01-26T05:26:11;4.30;94.00
68217;DHT22;55037;52.354;4.992;2023-01-26T05:28:54;4.20;94.10
68217;DHT22;55037;52.354;4.992;2023-01-26T05:31:21;4.30;94.10
68217;DHT22;55037;52.354;4.992;2023-01-26T05:33:49;4.30;94.10
68217;DHT22;55037;52.354;4.992;2023-01-26T05:36:21;4.30;94.30
68217;DHT22;55037;52.354;4.992;2023-01-26T05:38:48;4.30;94.30
68217;DHT22;55037;52.354;4.992;2023-01-26T05:41:19;4.30;94.40
68217;DHT22;55037;52.354;4.992;2023-01-26T05:44:03;4.40;94.40
68217;DHT22;55037;52.354;4.992;2023-01-26T05:46:37;4.40;94.30
68217;DHT22;55037;52.354;4.992;2023-01-26T05:49:05;4.40;94.20
68217;DHT22;55037;52.354;4.992;2023-01-26T05:51:32;4.40;94.20
68217;DHT22;55037;52.354;4.992;2023-01-26T05:53:59;4.40;94.20
68217;DHT22;55037;52.354;4.992;2023-01-26T05:56:26;4.50;94.30
68217;DHT22;55037;52.354;4.992;2023-01-26T05:58:58;4.40;94.40
68217;DHT22;55037;52.354;4.992;2023-01-26T06:01:26;4.40;94.00
68217;DHT22;55037;52.354;4.992;2023-01-26T06:03:58;4.50;94.30
68217;DHT22;55037;52.354;4.992;2023-01-26T06:06:30;4.50;94.40
68217;DHT22;55037;52.354;4.992;2023-01-26T06:09:20;4.50;94.40
68217;DHT22;55037;52.354;4.992;2023-01-26T06:12:15;4.50;94.80
68217;DHT22;55037;52.354;4.992;2023-01-26T06:14:54;4.50;95.10
68217;DHT22;55037;52.354;4.992;2023-01-26T06:17:24;4.50;95.30
68217;DHT22;55037;52.354;4.992;2023-01-26T06:19:56;4.50;95.50
68217;DHT22;55037;52.354;4.992;2023-01-26T06:22:24;4.60;95.70
68217;DHT22;55037;52.354;4.992;2023-01-26T06:24:52;4.60;95.90
68217;DHT22;55037;52.354;4.992;2023-01-26T06:27:19;4.60;96.20
68217;DHT22;55037;52.354;4.992;2023-01-26T06:29:49;4.70;96.30
68217;DHT22;55037;52.354;4.992;2023-01-26T06:32:16;4.70;96.50
68217;DHT22;55037;52.354;4.992;2023-01-26T06:34:45;4.80;96.60
68217;DHT22;55037;52.354;4.992;2023-01-26T06:37:13;4.80;96.70
68217;DHT22;55037;52.354;4.992;2023-01-26T06:39:40;4.90;96.80
68217;DHT22;55037;52.354;4.992;2023-01-26T06:42:08;5.00;96.70
68217;DHT22;55037;52.354;4.992;2023-01-26T06:44:37;5.00;96.70
68217;DHT22;55037;52.354;4.992;2023-01-26T06:47:05;5.20;96.90
68217;DHT22;55037;52.354;4.992;2023-01-26T06:49:33;5.30;97.00
68217;DHT22;55037;52.354;4.992;2023-01-26T06:52:04;5.40;97.00
68217;DHT22;55037;52.354;4.992;2023-01-26T06:54:48;5.50;96.90
68217;DHT22;55037;52.354;4.992;2023-01-26T06:57:16;5.50;96.70
68217;DHT22;55037;52.354;4.992;2023-01-26T07:00:05;5.50;96.70
68217;DHT22;55037;52.354;4.992;2023-01-26T07:02:38;5.60;96.60
68217;DHT22;55037;52.354;4.992;2023-01-26T07:05:06;5.60;96.60
68217;DHT22;55037;52.354;4.992;2023-01-26T07:07:33;5.70;96.60
68217;DHT22;55037;52.354;4.992;2023-01-26T07:10:01;5.70;96.60
68217;DHT22;55037;52.354;4.992;2023-01-26T07:12:40;5.70;96.60
68217;DHT22;55037;52.354;4.992;2023-01-26T07:15:09;5.80;96.50
68217;DHT22;55037;52.354;4.992;2023-01-26T07:17:38;5.70;96.40
68217;DHT22;55037;52.354;4.992;2023-01-26T07:20:06;5.70;96.40
68217;DHT22;55037;52.354;4.992;2023-01-26T07:22:33;5.80;96.30
68217;DHT22;55037;52.354;4.992;2023-01-26T07:25:00;5.80;96.20
68217;DHT22;55037;52.354;4.992;2023-01-26T07:27:28;5.70;96.10
68217;DHT22;55037;52.354;4.992;2023-01-26T07:29:55;5.70;96.10
68217;DHT22;55037;52.354;4.992;2023-01-26T07:32:22;5.70;96.10
68217;DHT22;55037;52.354;4.992;2023-01-26T07:34:49;5.70;96.00
68217;DHT22;55037;52.354;4.992;2023-01-26T07:37:16;5.70;96.10
68217;DHT22;55037;52.354;4.992;2023-01-26T07:39:44;5.70;96.00
68217;DHT22;55037;52.354;4.992;2023-01-26T07:42:11;5.60;95.90
68217;DHT22;55037;52.354;4.992;2023-01-26T07:44:57;5.60;95.80
68217;DHT22;55037;52.354;4.992;2023-01-26T07:47:26;5.60;95.70
68217;DHT22;55037;52.354;4.992;2023-01-26T07:49:53;5.50;95.30
68217;DHT22;55037;52.354;4.992;2023-01-26T07:52:20;5.50;95.70
68217;DHT22;55037;52.354;4.992;2023-01-26T07:54:47;5.50;95.70
68217;DHT22;55037;52.354;4.992;2023-01-26T07:57:15;5.40;95.80
68217;DHT22;55037;52.354;4.992;2023-01-26T07:59:42;5.50;95.70
68217;DHT22;55037;52.354;4.992;2023-01-26T08:02:09;5.40;96.00
68217;DHT22;55037;52.354;4.992;2023-01-26T08:04:36;5.40;96.00
68217;DHT22;55037;52.354;4.992;2023-01-26T08:07:04;5.40;96.10
68217;DHT22;55037;52.354;4.992;2023-01-26T08:09:31;5.50;95.90
68217;DHT22;55037;52.354;4.992;2023-01-26T08:11:58;5.50;96.30
68217;DHT22;55037;52.354;4.992;2023-01-26T08:14:25;5.50;96.30
68217;DHT22;55037;52.354;4.992;2023-01-26T08:17:07;5.50;96.30
68217;DHT22;55037;52.354;4.992;2023-01-26T08:19:34;5.60;96.30
68217;DHT22;55037;52.354;4.992;2023-01-26T08:22:02;5.70;96.50
68217;DHT22;55037;52.354;4.992;2023-01-26T08:24:29;5.80;96.50
68217;DHT22;55037;52.354;4.992;2023-01-26T08:26:56;5.90;96.40
68217;DHT22;55037;52.354;4.992;2023-01-26T08:29:23;6.20;95.60
68217;DHT22;55037;52.354;4.992;2023-01-26T08:31:50;6.20;95.90
68217;DHT22;55037;52.354;4.992;2023-01-26T08:34:18;6.30;95.60
68217;DHT22;55037;52.354;4.992;2023-01-26T08:36:48;6.40;95.40
68217;DHT22;55037;52.354;4.992;2023-01-26T08:39:15;6.50;95.40
68217;DHT22;55037;52.354;4.992;2023-01-26T08:41:42;6.60;95.00
68217;DHT22;55037;52.354;4.992;2023-01-26T08:44:09;6.70;94.70
68217;DHT22;55037;52.354;4.992;2023-01-26T08:46:37;6.80;94.80
68217;DHT22;55037;52.354;4.992;2023-01-26T08:49:04;7.50;96.70
68217;DHT22;55037;52.354;4.992;2023-01-26T08:51:31;9.10;94.40
68217;DHT22;55037;52.354;4.992;2023-01-26T08:53:58;10.80;90.10
68217;DHT22;55037;52.354;4.992;2023-01-26T08:56:26;12.30;82.40
68217;DHT22;55037;52.354;4.992;2023-01-26T08:58:53;13.00;77.00
68217;DHT22;55037;52.354;4.992;2023-01-26T09:01:20;12.60;74.00
68217;DHT22;55037;52.354;4.992;2023-01-26T09:03:47;11.50;75.60
68217;DHT22;55037;52.354;4.992;2023-01-26T09:06:15;10.50;78.60
68217;DHT22;55037;52.354;4.992;2023-01-26T09:08:42;9.80;81.10
68217;DHT22;55037;52.354;4.992;2023-01-26T09:11:09;9.30;82.90
68217;DHT22;55037;52.354;4.992;2023-01-26T09:13:38;9.00;84.70
68217;DHT22;55037;52.354;4.992;2023-01-26T09:16:11;8.80;86.00
68217;DHT22;55037;52.354;4.992;2023-01-26T09:18:38;8.80;89.40
68217;DHT22;55037;52.354;4.992;2023-01-26T09:21:07;10.40;88.90
68217;DHT22;55037;52.354;4.992;2023-01-26T09:23:35;13.20;81.30
68217;DHT22;55037;52.354;4.992;2023-01-26T09:26:02;16.00;70.50
68217;DHT22;55037;52.354;4.992;2023-01-26T09:28:29;18.30;59.30
68217;DHT22;55037;52.354;4.992;2023-01-26T09:31:01;19.90;51.80
68217;DHT22;55037;52.354;4.992;2023-01-26T09:33:28;21.30;46.60
68217;DHT22;55037;52.354;4.992;2023-01-26T09:35:55;22.40;43.20
68217;DHT22;55037;52.354;4.992;2023-01-26T09:38:28;23.30;40.20
68217;DHT22;55037;52.354;4.992;2023-01-26T09:43:49;25.20;35.40
68217;DHT22;55037;52.354;4.992;2023-01-26T09:49:05;26.80;31.50
68217;DHT22;55037;52.354;4.992;2023-01-26T09:51:40;27.50;30.70
68217;DHT22;55037;52.354;4.992;2023-01-26T09:57:00;28.50;28.80
68217;DHT22;55037;52.354;4.992;2023-01-26T09:59:45;28.90;28.10
68217;DHT22;55037;52.354;4.992;2023-01-26T10:05:36;29.80;26.90
68217;DHT22;55037;52.354;4.992;2023-01-26T10:08:12;30.30;25.80
68217;DHT22;55037;52.354;4.992;2023-01-26T10:10:57;30.00;25.30
68217;DHT22;55037;52.354;4.992;2023-01-26T10:13:26;29.20;26.00
68217;DHT22;55037;52.354;4.992;2023-01-26T10:16:00;29.00;25.90
68217;DHT22;55037;52.354;4.992;2023-01-26T10:18:36;28.80;25.70
68217;DHT22;55037;52.354;4.992;2023-01-26T10:21:06;28.60;26.40
68217;DHT22;55037;52.354;4.992;2023-01-26T10:23:47;29.30;26.10
68217;DHT22;55037;52.354;4.992;2023-01-26T10:26:20;30.00;25.10
68217;DHT22;55037;52.354;4.992;2023-01-26T10:28:49;30.10;24.70
68217;DHT22;55037;52.354;4.992;2023-01-26T10:31:23;29.90;24.70
68217;DHT22;55037;52.354;4.992;2023-01-26T10:33:52;30.00;24.30
68217;DHT22;55037;52.354;4.992;2023-01-26T10:36:20;30.10;24.50
68217;DHT22;55037;52.354;4.992;2023-01-26T10:38:48;30.10;24.40
68217;DHT22;55037;52.354;4.992;2023-01-26T10:46:40;32.00;22.90
68217;DHT22;55037;52.354;4.992;2023-01-26T10:51:37;31.80;22.10
68217;DHT22;55037;52.354;4.992;2023-01-26T10:54:25;30.60;22.80
68217;DHT22;55037;52.354;4.992;2023-01-26T11:00:00;27.00;27.50
68217;DHT22;55037;52.354;4.992;2023-01-26T11:02:35;29.30;26.30
68217;DHT22;55037;52.354;4.992;2023-01-26T11:05:14;31.80;23.60
68217;DHT22;55037;52.354;4.992;2023-01-26T11:07:44;33.90;21.80
68217;DHT22;55037;52.354;4.992;2023-01-26T11:10:27;35.30;20.60
68217;DHT22;55037;52.354;4.992;2023-01-26T11:13:07;36.30;19.70
68217;DHT22;55037;52.354;4.992;2023-01-26T11:15:37;36.30;19.40
68217;DHT22;55037;52.354;4.992;2023-01-26T11:18:26;35.40;19.40
68217;DHT22;55037;52.354;4.992;2023-01-26T11:29:30;30.50;23.10
68217;DHT22;55037;52.354;4.992;2023-01-26T11:37:42;23.00;31.40
68217;DHT22;55037;52.354;4.992;2023-01-26T11:40:49;21.70;35.30
68217;DHT22;55037;52.354;4.992;2023-01-26T11:46:14;23.70;30.60
68217;DHT22;55037;52.354;4.992;2023-01-26T11:49:05;21.90;33.50
68217;DHT22;55037;52.354;4.992;2023-01-26T11:59:52;19.10;39.90
68217;DHT22;55037;52.354;4.992;2023-01-26T12:02:28;18.00;42.80
68217;DHT22;55037;52.354;4.992;2023-01-26T12:05:00;16.90;45.30
68217;DHT22;55037;52.354;4.992;2023-01-26T12:07:39;16.00;47.80
68217;DHT22;55037;52.354;4.992;2023-01-26T12:13:10;14.90;52.90
68217;DHT22;55037;52.354;4.992;2023-01-26T12:15:46;14.40;55.50
68217;DHT22;55037;52.354;4.992;2023-01-26T12:18:28;14.10;57.40
68217;DHT22;55037;52.354;4.992;2023-01-26T12:21:15;13.90;59.20
68217;DHT22;55037;52.354;4.992;2023-01-26T12:23:55;13.70;60.90
68217;DHT22;55037;52.354;4.992;2023-01-26T12:26:25;13.50;62.20
68217;DHT22;55037;52.354;4.992;2023-01-26T12:34:31;12.90;64.90
68217;DHT22;55037;52.354;4.992;2023-01-26T12:40:07;13.40;64.00
68217;DHT22;55037;52.354;4.992;2023-01-26T12:42:48;13.60;62.80
68217;DHT22;55037;52.354;4.992;2023-01-26T12:45:32;13.40;63.00
68217;DHT22;55037;52.354;4.992;2023-01-26T12:48:19;13.30;63.50
68217;DHT22;55037;52.354;4.992;2023-01-26T12:50:56;13.40;62.60
68217;DHT22;55037;52.354;4.992;2023-01-26T12:53:29;13.40;63.50
68217;DHT22;55037;52.354;4.992;2023-01-26T12:58:38;14.30;60.10
68217;DHT22;55037;52.354;4.992;2023-01-26T13:01:17;14.50;59.20
68217;DHT22;55037;52.354;4.992;2023-01-26T13:03:54;14.40;59.00
68217;DHT22;55037;52.354;4.992;2023-01-26T13:06:27;13.90;59.60
68217;DHT22;55037;52.354;4.992;2023-01-26T13:14:35;12.10;67.10
68217;DHT22;55037;52.354;4.992;2023-01-26T13:27:44;15.80;64.30
68217;DHT22;55037;52.354;4.992;2023-01-26T13:33:22;17.40;47.40
68217;DHT22;55037;52.354;4.992;2023-01-26T13:35:51;16.20;50.00
68217;DHT22;55037;52.354;4.992;2023-01-26T13:38:36;13.90;52.00
68217;DHT22;55037;52.354;4.992;2023-01-26T13:41:23;14.10;56.90
68217;DHT22;55037;52.354;4.992;2023-01-26T13:44:10;13.00;63.00
68217;DHT22;55037;52.354;4.992;2023-01-26T13:47:27;12.20;67.10
68217;DHT22;55037;52.354;4.992;2023-01-26T13:49:41;11.50;70.30
68217;DHT22;55037;52.354;4.992;2023-01-26T13:52:19;11.10;73.10
68217;DHT22;55037;52.354;4.992;2023-01-26T13:54:48;11.10;74.80
68217;DHT22;55037;52.354;4.992;2023-01-26T13:57:24;11.20;74.90
68217;DHT22;55037;52.354;4.992;2023-01-26T13:59:57;11.90;73.90
68217;DHT22;55037;52.354;4.992;2023-01-26T14:02:34;12.20;74.60
68217;DHT22;55037;52.354;4.992;2023-01-26T14:05:01;13.40;69.20
68217;DHT22;55037;52.354;4.992;2023-01-26T14:07:41;13.80;66.10
68217;DHT22;55037;52.354;4.992;2023-01-26T14:10:19;13.90;64.50
68217;DHT22;55037;52.354;4.992;2023-01-26T14:12:49;13.60;64.70
68217;DHT22;55037;52.354;4.992;2023-01-26T14:15:29;13.40;66.30
68217;DHT22;55037;52.354;4.992;2023-01-26T14:18:03;13.00;65.60
68217;DHT22;55037;52.354;4.992;2023-01-26T14:20:35;12.60;66.90
68217;DHT22;55037;52.354;4.992;2023-01-26T14:25:32;12.00;69.60
68217;DHT22;55037;52.354;4.992;2023-01-26T14:28:00;11.90;70.50
68217;DHT22;55037;52.354;4.992;2023-01-26T14:30:30;12.00;70.80
68217;DHT22;55037;52.354;4.992;2023-01-26T14:33:08;12.00;70.90
68217;DHT22;55037;52.354;4.992;2023-01-26T14:35:37;12.10;71.00
68217;DHT22;55037;52.354;4.992;2023-01-26T14:40:47;12.10;70.50
68217;DHT22;55037;52.354;4.992;2023-01-26T14:43:16;12.20;70.40
68217;DHT22;55037;52.354;4.992;2023-01-26T14:48:19;11.80;70.70
68217;DHT22;55037;52.354;4.992;2023-01-26T14:50:48;11.50;71.60
68217;DHT22;55037;52.354;4.992;2023-01-26T14:53:19;11.20;72.70
68217;DHT22;55037;52.354;4.992;2023-01-26T14:55:48;10.90;73.90
68217;DHT22;55037;52.354;4.992;2023-01-26T14:58:25;10.80;74.50
68217;DHT22;55037;52.354;4.992;2023-01-26T15:00:55;10.60;74.30
68217;DHT22;55037;52.354;4.992;2023-01-26T15:03:33;10.40;74.70
68217;DHT22;55037;52.354;4.992;2023-01-26T15:06:16;10.30;74.50
68217;DHT22;55037;52.354;4.992;2023-01-26T15:11:39;10.10;74.50
68217;DHT22;55037;52.354;4.992;2023-01-26T15:14:38;10.00;74.50
68217;DHT22;55037;52.354;4.992;2023-01-26T15:22:47;9.70;74.40
68217;DHT22;55037;52.354;4.992;2023-01-26T15:25:18;9.60;74.40
68217;DHT22;55037;52.354;4.992;2023-01-26T15:28:04;9.60;74.90
68217;DHT22;55037;52.354;4.992;2023-01-26T15:30:33;9.50;74.60
68217;DHT22;55037;52.354;4.992;2023-01-26T15:33:01;9.40;74.40
68217;DHT22;55037;52.354;4.992;2023-01-26T15:35:31;9.30;74.20
68217;DHT22;55037;52.354;4.992;2023-01-26T15:38:08;9.30;74.40
68217;DHT22;55037;52.354;4.992;2023-01-26T15:40:36;9.30;74.70
68217;DHT22;55037;52.354;4.992;2023-01-26T15:43:15;9.20;74.80
68217;DHT22;55037;52.354;4.992;2023-01-26T15:45:53;9.20;75.20
68217;DHT22;55037;52.354;4.992;2023-01-26T15:48:22;9.20;75.50
68217;DHT22;55037;52.354;4.992;2023-01-26T15:50:50;9.10;75.10
68217;DHT22;55037;52.354;4.992;2023-01-26T15:53:20;9.10;76.10
68217;DHT22;55037;52.354;4.992;2023-01-26T15:55:49;9.10;76.10
68217;DHT22;55037;52.354;4.992;2023-01-26T15:58:19;9.00;76.20
68217;DHT22;55037;52.354;4.992;2023-01-26T16:00:46;9.00;76.00
68217;DHT22;55037;52.354;4.992;2023-01-26T16:03:16;9.00;76.10
68217;DHT22;55037;52.354;4.992;2023-01-26T16:05:44;9.10;76.20
68217;DHT22;55037;52.354;4.992;2023-01-26T16:08:16;9.00;75.90
68217;DHT22;55037;52.354;4.992;2023-01-26T16:10:44;9.00;76.00
68217;DHT22;55037;52.354;4.992;2023-01-26T16:13:17;9.00;76.20
68217;DHT22;55037;52.354;4.992;2023-01-26T16:15:52;8.90;76.60
68217;DHT22;55037;52.354;4.992;2023-01-26T16:18:19;8.90;77.50
68217;DHT22;55037;52.354;4.992;2023-01-26T16:20:48;8.90;78.30
68217;DHT22;55037;52.354;4.992;2023-01-26T16:25:47;8.80;79.10
68217;DHT22;55037;52.354;4.992;2023-01-26T16:28:15;8.80;79.40
68217;DHT22;55037;52.354;4.992;2023-01-26T16:30:43;8.70;78.80
68217;DHT22;55037;52.354;4.992;2023-01-26T16:33:14;8.70;79.80
68217;DHT22;55037;52.354;4.992;2023-01-26T16:35:42;8.70;80.10
68217;DHT22;55037;52.354;4.992;2023-01-26T16:38:09;8.70;80.50
68217;DHT22;55037;52.354;4.992;2023-01-26T16:40:41;8.60;80.70
68217;DHT22;55037;52.354;4.992;2023-01-26T16:43:23;8.60;80.80
68217;DHT22;55037;52.354;4.992;2023-01-26T16:45:53;8.60;80.90
68217;DHT22;55037;52.354;4.992;2023-01-26T16:48:22;8.60;80.80
68217;DHT22;55037;52.354;4.992;2023-01-26T16:50:52;8.60;80.80
68217;DHT22;55037;52.354;4.992;2023-01-26T16:53:30;8.60;80.50
68217;DHT22;55037;52.354;4.992;2023-01-26T16:56:02;8.60;80.40
68217;DHT22;55037;52.354;4.992;2023-01-26T16:58:31;8.50;80.10
68217;DHT22;55037;52.354;4.992;2023-01-26T17:00:59;8.50;80.20
68217;DHT22;55037;52.354;4.992;2023-01-26T17:03:26;8.50;80.40
68217;DHT22;55037;52.354;4.992;2023-01-26T17:05:54;8.50;80.40
68217;DHT22;55037;52.354;4.992;2023-01-26T17:08:22;8.40;80.70
68217;DHT22;55037;52.354;4.992;2023-01-26T17:10:49;8.50;80.30
68217;DHT22;55037;52.354;4.992;2023-01-26T17:13:28;8.50;81.10
68217;DHT22;55037;52.354;4.992;2023-01-26T17:15:57;8.50;81.10
68217;DHT22;55037;52.354;4.992;2023-01-26T17:18:25;8.50;81.00
68217;DHT22;55037;52.354;4.992;2023-01-26T17:20:52;8.50;81.10
68217;DHT22;55037;52.354;4.992;2023-01-26T17:23:19;8.50;81.10
68217;DHT22;55037;52.354;4.992;2023-01-26T17:25:46;8.50;81.30
68217;DHT22;55037;52.354;4.992;2023-01-26T17:28:13;8.50;81.40
68217;DHT22;55037;52.354;4.992;2023-01-26T17:30:41;8.50;81.50
68217;DHT22;55037;52.354;4.992;2023-01-26T17:33:08;8.50;81.60
68217;DHT22;55037;52.354;4.992;2023-01-26T17:35:35;8.50;81.60
68217;DHT22;55037;52.354;4.992;2023-01-26T17:38:02;8.50;81.60
68217;DHT22;55037;52.354;4.992;2023-01-26T17:40:29;8.50;81.40
68217;DHT22;55037;52.354;4.992;2023-01-26T17:42:57;8.50;81.30
68217;DHT22;55037;52.354;4.992;2023-01-26T17:45:24;8.50;81.20
68217;DHT22;55037;52.354;4.992;2023-01-26T17:47:51;8.40;81.10
68217;DHT22;55037;52.354;4.992;2023-01-26T17:50:20;8.40;80.50
68217;DHT22;55037;52.354;4.992;2023-01-26T17:52:47;8.40;81.20
68217;DHT22;55037;52.354;4.992;2023-01-26T17:55:14;8.40;81.10
68217;DHT22;55037;52.354;4.992;2023-01-26T17:57:41;8.40;81.10